Time;durP1;ratioP1;P1;durP2;ratioP2;P2;SDS_P1;SDS_P2;PMS_P1;PMS_P2;Temp;Humidity;BMP_temperature;BMP_pressure;BME280_temperature;BME280_humidity;BME280_pressure;Samples;Min_cycle;Max_cycle;Signal;HPM_P1;HPM_P2
2023/06/27 00:01:46;;;;;;;6.50;2.35;;;;;17.00;101580.00;;;;10389108;28;20291;-79
2023/06/27 00:06:48;;;;;;;10.90;2.45;;;;;17.00;101580.00;;;;10403533;28;20209;-78
2023/06/27 00:11:49;;;;;;;8.38;2.38;;;;;17.00;101586.00;;;;10403141;28;20531;-80
2023/06/27 00:16:52;;;;;;;7.43;2.85;;;;;17.00;101587.00;;;;10388019;28;20217;-77
2023/06/27 00:21:53;;;;;;;7.13;2.40;;;;;16.90;101572.00;;;;10385229;28;20334;-76
2023/06/27 00:26:54;;;;;;;7.57;2.78;;;;;16.90;101574.00;;;;10386583;28;20837;-77
2023/06/27 00:31:56;;;;;;;10.13;3.20;;;;;16.90;101579.00;;;;10402829;28;20932;-79
2023/06/27 00:36:58;;;;;;;8.40;2.85;;;;;16.80;101585.00;;;;10400932;28;20718;-79
2023/06/27 00:41:59;;;;;;;8.30;3.22;;;;;16.80;101578.00;;;;10385754;28;20398;-78
2023/06/27 00:47:01;;;;;;;12.10;3.60;;;;;16.80;101588.00;;;;10397881;28;20232;-77
2023/06/27 00:52:03;;;;;;;11.60;3.70;;;;;16.80;101588.00;;;;10402885;28;20676;-76
2023/06/27 00:57:05;;;;;;;15.45;3.33;;;;;16.70;101589.00;;;;10396433;28;20931;-78
2023/06/27 01:02:08;;;;;;;10.20;3.40;;;;;16.60;101594.00;;;;10383985;28;20334;-79
2023/06/27 01:07:46;;;;;;;7.22;3.00;;;;;16.50;101588.00;;;;10402075;28;20193;-78
2023/06/27 01:12:51;;;;;;;13.18;4.00;;;;;16.50;101592.00;;;;10378166;28;20417;-77
2023/06/27 01:17:52;;;;;;;10.98;2.90;;;;;16.60;101594.00;;;;10400255;28;20224;-81
2023/06/27 01:23:16;;;;;;;13.07;3.53;;;;;16.60;101582.00;;;;10404259;28;20212;-77
2023/06/27 01:28:17;;;;;;;9.20;2.83;;;;;16.50;101594.00;;;;10401040;28;20630;-77
2023/06/27 01:33:27;;;;;;;9.70;3.00;;;;;16.40;101593.00;;;;10385688;28;20545;-79
2023/06/27 01:38:37;;;;;;;13.77;3.50;;;;;16.30;101591.00;;;;10404783;28;21303;-77
2023/06/27 01:43:40;;;;;;;12.85;3.38;;;;;16.30;101594.00;;;;10385873;28;21230;-77
2023/06/27 01:48:43;;;;;;;13.10;3.22;;;;;16.30;101590.00;;;;10397665;28;20208;-80
2023/06/27 01:53:44;;;;;;;13.43;3.53;;;;;16.20;101591.00;;;;10402508;28;21087;-78
2023/06/27 01:58:47;;;;;;;8.50;2.55;;;;;16.20;101592.00;;;;10384437;28;20211;-80
2023/06/27 02:03:49;;;;;;;10.70;2.97;;;;;16.10;101588.00;;;;10384576;28;20670;-78
2023/06/27 02:08:50;;;;;;;13.30;2.70;;;;;16.00;101583.00;;;;10397557;28;21054;-76
2023/06/27 02:13:52;;;;;;;14.43;3.45;;;;;16.00;101587.00;;;;10403972;28;20248;-79
2023/06/27 02:18:53;;;;;;;7.43;2.72;;;;;16.00;101581.00;;;;10408328;28;20208;-80
2023/06/27 02:23:54;;;;;;;13.30;3.08;;;;;16.00;101583.00;;;;10393908;28;20667;-75
2023/06/27 02:28:56;;;;;;;11.23;2.50;;;;;16.00;101582.00;;;;10393891;28;20293;-77
2023/06/27 02:33:58;;;;;;;11.40;3.20;;;;;16.00;101570.00;;;;10410317;28;21256;-78
2023/06/27 02:39:01;;;;;;;9.25;2.70;;;;;16.00;101564.00;;;;10381616;28;22660;-77
2023/06/27 02:44:02;;;;;;;8.55;2.70;;;;;15.90;101565.00;;;;10395324;28;20219;-80
2023/06/27 02:49:04;;;;;;;8.95;3.00;;;;;15.90;101571.00;;;;10406782;28;20212;-77
2023/06/27 02:54:05;;;;;;;15.52;3.35;;;;;15.90;101566.00;;;;10383133;28;21284;-75
2023/06/27 02:59:08;;;;;;;11.73;3.15;;;;;15.90;101566.00;;;;10387145;28;20213;-76
2023/06/27 03:04:10;;;;;;;15.80;4.00;;;;;15.90;101565.00;;;;10405858;28;20215;-78
2023/06/27 03:09:22;;;;;;;10.02;3.17;;;;;15.80;101557.00;;;;10409967;28;20210;-79
2023/06/27 03:14:24;;;;;;;10.10;2.80;;;;;15.80;101558.00;;;;10383079;28;20816;-76
2023/06/27 03:19:27;;;;;;;13.57;3.45;;;;;15.70;101567.00;;;;10402517;28;20212;-78
2023/06/27 03:24:44;;;;;;;10.87;2.73;;;;;15.60;101571.00;;;;10398527;28;20198;-78
2023/06/27 03:29:46;;;;;;;17.67;3.35;;;;;15.50;101586.00;;;;10401030;28;20208;-79
2023/06/27 03:34:47;;;;;;;8.37;3.27;;;;;15.40;101582.00;;;;10383077;28;20220;-80
2023/06/27 03:39:49;;;;;;;9.17;3.03;;;;;15.30;101589.00;;;;10385704;28;20817;-78
2023/06/27 03:44:51;;;;;;;10.37;2.73;;;;;15.20;101584.00;;;;10404893;28;20201;-80
2023/06/27 03:49:52;;;;;;;14.27;3.60;;;;;15.20;101570.00;;;;10401142;28;20296;-76
2023/06/27 03:54:54;;;;;;;12.03;3.07;;;;;15.10;101584.00;;;;10387950;28;20236;-81
2023/06/27 03:59:55;;;;;;;10.63;3.37;;;;;15.20;101590.00;;;;10365042;28;20460;-76
2023/06/27 04:04:56;;;;;;;16.43;3.17;;;;;15.20;101585.00;;;;10403895;28;20197;-78
2023/06/27 04:09:58;;;;;;;10.40;2.97;;;;;15.30;101582.00;;;;10402956;28;20968;-79
2023/06/27 04:15:00;;;;;;;14.60;3.77;;;;;15.40;101590.00;;;;10379778;28;20977;-76
2023/06/27 04:20:02;;;;;;;14.23;3.67;;;;;15.60;101592.00;;;;10366466;28;20209;-80
2023/06/27 04:25:04;;;;;;;9.98;3.22;;;;;15.70;101588.00;;;;10398555;28;20410;-79
2023/06/27 04:30:07;;;;;;;8.37;2.90;;;;;15.80;101593.00;;;;10401260;28;20201;-78
2023/06/27 04:35:09;;;;;;;13.38;3.30;;;;;16.00;101587.00;;;;10405600;28;21409;-80
2023/06/27 04:40:11;;;;;;;9.87;3.67;;;;;16.00;101592.00;;;;10396977;28;20209;-76
2023/06/27 04:45:13;;;;;;;14.23;3.55;;;;;16.20;101586.00;;;;10404715;28;20209;-80
2023/06/27 04:50:18;;;;;;;11.93;4.43;;;;;16.30;101608.00;;;;10410701;28;20228;-78
2023/06/27 04:55:20;;;;;;;11.30;3.95;;;;;16.30;101599.00;;;;10406696;28;21293;-78
2023/06/27 05:00:22;;;;;;;13.18;3.63;;;;;16.30;101603.00;;;;10408314;28;20223;-78
2023/06/27 05:05:31;;;;;;;15.85;4.13;;;;;16.30;101598.00;;;;10410540;28;20200;-78
2023/06/27 05:10:33;;;;;;;15.75;3.80;;;;;16.60;101596.00;;;;10404678;28;20213;-75
2023/06/27 05:15:35;;;;;;;12.52;3.58;;;;;17.10;101590.00;;;;10392842;28;21175;-76
2023/06/27 05:20:36;;;;;;;10.02;3.88;;;;;17.60;101589.00;;;;10380657;28;20201;-79
2023/06/27 05:25:38;;;;;;;12.63;4.60;;;;;18.10;101587.00;;;;10382423;28;20204;-77
2023/06/27 05:30:39;;;;;;;15.88;4.78;;;;;18.50;101589.00;;;;10376870;28;20468;-73
2023/06/27 05:35:41;;;;;;;13.50;4.20;;;;;18.90;101595.00;;;;10468420;28;20600;-73
2023/06/27 05:40:43;;;;;;;17.77;4.32;;;;;19.40;101600.00;;;;10494835;28;20272;-79
2023/06/27 05:45:44;;;;;;;14.93;4.50;;;;;19.80;101612.00;;;;10468602;28;20562;-78
2023/06/27 05:50:46;;;;;;;15.95;4.93;;;;;20.10;101597.00;;;;10472658;28;20204;-76
2023/06/27 05:55:48;;;;;;;11.77;3.88;;;;;20.40;101597.00;;;;10514179;28;20250;-76
2023/06/27 06:00:50;;;;;;;13.32;4.10;;;;;20.90;101593.00;;;;10511367;28;20202;-77
2023/06/27 06:05:51;;;;;;;11.32;3.90;;;;;21.40;101602.00;;;;10497090;28;20295;-84
2023/06/27 06:10:53;;;;;;;14.88;4.32;;;;;21.90;101599.00;;;;10525390;28;20224;-77
2023/06/27 06:15:54;;;;;;;13.43;4.10;;;;;22.30;101607.00;;;;10454278;28;20225;-79
2023/06/27 06:20:56;;;;;;;16.45;5.38;;;;;23.10;101609.00;;;;10526904;28;20646;-81
2023/06/27 06:25:57;;;;;;;20.20;8.15;;;;;23.30;101612.00;;;;10548011;28;20196;-85
2023/06/27 06:30:58;;;;;;;12.10;4.28;;;;;22.60;101607.00;;;;10547103;28;20200;-76
2023/06/27 06:36:00;;;;;;;12.93;3.83;;;;;23.00;101608.00;;;;10545873;28;20341;-79
2023/06/27 06:41:02;;;;;;;14.13;5.13;;;;;23.20;101609.00;;;;10546200;28;20669;-81
2023/06/27 06:46:03;;;;;;;17.02;3.55;;;;;23.80;101603.00;;;;10529124;28;20197;-75
2023/06/27 06:51:05;;;;;;;18.75;6.15;;;;;23.90;101604.00;;;;10528180;28;20200;-79
2023/06/27 06:56:06;;;;;;;17.77;5.68;;;;;23.90;101607.00;;;;10545178;28;20247;-79
2023/06/27 07:01:08;;;;;;;11.68;3.67;;;;;23.80;101621.00;;;;10527697;28;20189;-82
2023/06/27 07:06:09;;;;;;;13.27;4.22;;;;;24.70;101618.00;;;;10527934;28;20653;-74
2023/06/27 07:11:10;;;;;;;12.55;3.78;;;;;24.40;101613.00;;;;10544366;28;20602;-84
2023/06/27 07:16:12;;;;;;;12.88;3.50;;;;;24.80;101619.00;;;;10527764;28;20209;-79
2023/06/27 07:21:13;;;;;;;13.35;3.65;;;;;25.50;101618.00;;;;10544731;28;20271;-80
2023/06/27 07:26:15;;;;;;;9.52;3.30;;;;;24.80;101613.00;;;;10526376;28;20599;-78
2023/06/27 07:31:17;;;;;;;12.70;4.50;;;;;24.40;101609.00;;;;10543200;28;20189;-78
2023/06/27 07:36:18;;;;;;;12.40;3.38;;;;;24.50;101605.00;;;;10526213;28;20212;-76
2023/06/27 07:41:20;;;;;;;10.45;3.17;;;;;24.70;101607.00;;;;10527150;28;20319;-76
2023/06/27 07:46:21;;;;;;;21.90;3.95;;;;;24.90;101608.00;;;;10544617;28;20197;-87
2023/06/27 07:51:23;;;;;;;10.63;3.08;;;;;24.90;101615.00;;;;10546022;28;20185;-76
2023/06/27 07:56:24;;;;;;;11.20;3.25;;;;;24.10;101626.00;;;;10542354;28;20216;-78
2023/06/27 08:01:26;;;;;;;5.53;2.58;;;;;23.90;101625.00;;;;10550627;28;20195;-89
2023/06/27 08:06:27;;;;;;;9.30;3.28;;;;;23.50;101625.00;;;;10522200;28;20272;-74
2023/06/27 08:11:29;;;;;;;11.52;3.17;;;;;23.70;101618.00;;;;10540777;28;20204;-73
2023/06/27 08:16:30;;;;;;;9.98;3.15;;;;;24.00;101626.00;;;;10541827;28;20570;-85
2023/06/27 08:21:32;;;;;;;8.60;3.17;;;;;24.30;101613.00;;;;10530356;28;20193;-79
2023/06/27 08:26:33;;;;;;;7.43;2.72;;;;;24.60;101613.00;;;;10543311;28;20200;-76
2023/06/27 08:31:35;;;;;;;12.20;3.08;;;;;25.40;101608.00;;;;10540684;28;20197;-87
2023/06/27 08:36:37;;;;;;;8.05;2.72;;;;;25.90;101620.00;;;;10545755;28;20235;-77
2023/06/27 08:41:38;;;;;;;11.77;3.03;;;;;26.40;101615.00;;;;10524476;28;20691;-78
2023/06/27 08:46:40;;;;;;;8.98;3.15;;;;;27.20;101596.00;;;;10541857;28;20200;-86
2023/06/27 08:51:45;;;;;;;10.38;2.92;;;;;27.90;101591.00;;;;10545584;28;20208;-79
2023/06/27 08:56:47;;;;;;;4.85;2.20;;;;;28.90;101589.00;;;;10540476;28;20270;-75
2023/06/27 09:01:50;;;;;;;5.57;2.20;;;;;28.80;101583.00;;;;10542879;28;20231;-75
2023/06/27 09:06:51;;;;;;;4.80;1.88;;;;;28.50;101591.00;;;;10542154;28;20242;-79
2023/06/27 09:11:53;;;;;;;5.15;1.80;;;;;27.80;101613.00;;;;10412322;28;20217;-81
2023/06/27 09:16:55;;;;;;;8.73;2.20;;;;;28.60;101605.00;;;;10392534;28;20811;-80
2023/06/27 09:21:57;;;;;;;4.75;2.05;;;;;30.00;101605.00;;;;10402464;28;20425;-80
2023/06/27 09:26:58;;;;;;;6.65;2.22;;;;;30.70;101594.00;;;;10411957;28;20196;-80
2023/06/27 09:32:07;;;;;;;6.63;1.98;;;;;30.60;101594.00;;;;10409211;28;20359;-79
2023/06/27 09:37:08;;;;;;;3.55;1.45;;;;;31.20;101581.00;;;;10390468;28;20219;-78
2023/06/27 09:42:12;;;;;;;5.70;1.85;;;;;32.30;101588.00;;;;10395769;28;20224;-78
2023/06/27 09:47:14;;;;;;;4.80;1.85;;;;;32.50;101588.00;;;;10400647;28;20373;-78
2023/06/27 09:52:18;;;;;;;5.10;1.77;;;;;33.60;101587.00;;;;10405694;28;20352;-78
2023/06/27 09:57:23;;;;;;;4.47;1.83;;;;;32.00;101598.00;;;;10386379;28;20224;-77
2023/06/27 10:02:31;;;;;;;6.55;1.80;;;;;31.40;101591.00;;;;10402927;28;20777;-79
2023/06/27 10:07:33;;;;;;;4.18;1.77;;;;;29.90;101588.00;;;;10404669;28;20229;-78
2023/06/27 10:12:35;;;;;;;6.60;1.83;;;;;28.10;101593.00;;;;10402473;28;20328;-78
2023/06/27 10:17:36;;;;;;;4.75;1.38;;;;;29.00;101580.00;;;;10404720;28;20469;-77
2023/06/27 10:22:44;;;;;;;2.72;1.33;;;;;32.30;101566.00;;;;10380714;28;22277;-76
2023/06/27 10:27:45;;;;;;;4.97;1.40;;;;;31.10;101583.00;;;;10468221;28;20200;-74
2023/06/27 10:32:48;;;;;;;4.53;2.03;;;;;29.50;101584.00;;;;10486770;28;20282;-76
2023/06/27 10:38:06;;;;;;;5.93;2.05;;;;;28.50;101589.00;;;;10502591;28;20213;-76
2023/06/27 10:43:07;;;;;;;2.80;1.45;;;;;28.20;101582.00;;;;10503093;28;20228;-76
2023/06/27 10:48:09;;;;;;;2.92;1.45;;;;;27.70;101581.00;;;;10504373;28;20194;-76
2023/06/27 10:53:16;;;;;;;5.05;1.83;;;;;27.90;101581.00;;;;10487634;28;20190;-85
2023/06/27 10:58:26;;;;;;;6.13;1.50;;;;;27.30;101588.00;;;;10489617;28;20223;-78
2023/06/27 11:03:33;;;;;;;4.72;1.80;;;;;26.20;101587.00;;;;10503985;28;20236;-78
2023/06/27 11:08:35;;;;;;;3.17;1.05;;;;;24.90;101583.00;;;;10502954;28;20193;-78
2023/06/27 11:13:41;;;;;;;3.85;1.50;;;;;24.70;101592.00;;;;10501900;28;20221;-73
2023/06/27 11:18:43;;;;;;;8.30;1.50;;;;;25.40;101564.00;;;;10504026;28;20198;-85
2023/06/27 11:23:44;;;;;;;3.80;1.33;;;;;26.60;101573.00;;;;10504430;28;20284;-83
2023/06/27 11:28:46;;;;;;;3.15;1.60;;;;;27.40;101563.00;;;;10486286;28;20271;-73
2023/06/27 11:33:56;;;;;;;2.63;1.15;;;;;27.10;101545.00;;;;10502669;28;20194;-76
2023/06/27 11:38:57;;;;;;;5.53;1.30;;;;;27.30;101559.00;;;;10503690;28;20201;-82
2023/06/27 11:43:58;;;;;;;2.17;1.30;;;;;27.90;101552.00;;;;10501761;28;20200;-73
2023/06/27 11:49:00;;;;;;;3.75;1.30;;;;;27.60;101564.00;;;;10500910;28;20221;-78
2023/06/27 11:54:02;;;;;;;3.72;1.30;;;;;27.00;101555.00;;;;10503041;28;20709;-83
2023/06/27 11:59:06;;;;;;;2.72;1.55;;;;;26.70;101551.00;;;;10484569;28;20194;-78
2023/06/27 12:04:14;;;;;;;4.32;1.15;;;;;28.50;101543.00;;;;10501020;28;20205;-78
2023/06/27 12:09:24;;;;;;;4.32;1.58;;;;;27.80;101540.00;;;;10483741;28;20217;-79
2023/06/27 12:14:26;;;;;;;6.10;1.70;;;;;29.10;101548.00;;;;10500081;28;20217;-76
2023/06/27 12:19:28;;;;;;;5.32;1.98;;;;;31.10;101548.00;;;;10499999;28;20197;-79
2023/06/27 12:24:29;;;;;;;5.93;1.70;;;;;30.80;101558.00;;;;10501115;28;20197;-79
2023/06/27 12:29:31;;;;;;;22.55;4.25;;;;;31.00;101551.00;;;;10502164;28;20196;-81
2023/06/27 12:34:32;;;;;;;3.25;1.70;;;;;31.30;101538.00;;;;10467479;28;20691;-81
2023/06/27 12:39:37;;;;;;;5.00;1.80;;;;;32.30;101543.00;;;;10499321;28;20280;-74
2023/06/27 12:44:39;;;;;;;4.82;1.88;;;;;32.00;101530.00;;;;10481606;28;20197;-78
2023/06/27 12:49:40;;;;;;;6.60;1.88;;;;;31.20;101534.00;;;;10482615;28;20296;-74
2023/06/27 12:54:42;;;;;;;3.60;1.65;;;;;30.60;101518.00;;;;10498736;28;20736;-75
2023/06/27 12:59:49;;;;;;;6.68;1.73;;;;;31.50;101496.00;;;;10497810;28;20220;-79
2023/06/27 13:04:51;;;;;;;5.18;1.88;;;;;30.70;101503.00;;;;10498664;28;20201;-76
2023/06/27 13:09:53;;;;;;;6.28;1.70;;;;;30.30;101487.00;;;;10498617;28;20189;-78
2023/06/27 13:14:54;;;;;;;2.70;1.27;;;;;30.80;101500.00;;;;10481067;28;20256;-82
2023/06/27 13:19:56;;;;;;;5.88;1.70;;;;;30.00;101494.00;;;;10498247;28;20209;-78
2023/06/27 13:24:58;;;;;;;4.35;1.50;;;;;31.30;101490.00;;;;10505998;28;20193;-88
2023/06/27 13:30:00;;;;;;;7.00;2.13;;;;;30.70;101488.00;;;;10501293;28;20206;-73
2023/06/27 13:35:01;;;;;;;8.95;1.80;;;;;31.90;101481.00;;;;10413933;28;20491;-77
2023/06/27 13:40:04;;;;;;;8.40;2.10;;;;;31.70;101472.00;;;;10400070;28;20205;-78
2023/06/27 13:45:06;;;;;;;6.13;1.67;;;;;32.20;101474.00;;;;10399415;28;20211;-80
2023/06/27 13:50:08;;;;;;;6.20;2.00;;;;;32.30;101489.00;;;;10383317;28;20372;-78
2023/06/27 13:55:09;;;;;;;7.45;1.88;;;;;31.30;101493.00;;;;10387316;28;20223;-78
2023/06/27 14:00:11;;;;;;;4.93;1.45;;;;;29.60;101489.00;;;;10405466;28;21322;-78
2023/06/27 14:05:13;;;;;;;5.50;2.05;;;;;28.90;101478.00;;;;10476021;28;20272;-85
2023/06/27 14:10:15;;;;;;;7.00;1.90;;;;;28.20;101467.00;;;;10512536;28;20903;-77
2023/06/27 14:15:18;;;;;;;7.40;2.05;;;;;29.00;101454.00;;;;10490445;28;20578;-73
2023/06/27 14:20:19;;;;;;;5.13;1.77;;;;;28.30;101448.00;;;;10507421;28;20217;-72
2023/06/27 14:25:21;;;;;;;5.47;1.90;;;;;27.50;101449.00;;;;10509763;28;20682;-76
2023/06/27 14:30:22;;;;;;;3.60;1.83;;;;;27.40;101454.00;;;;10505259;28;20228;-73
2023/06/27 14:35:24;;;;;;;8.23;2.13;;;;;27.10;101452.00;;;;10545629;28;20640;-73
2023/06/27 14:40:25;;;;;;;4.78;1.65;;;;;27.80;101454.00;;;;10544945;28;20193;-74
2023/06/27 14:45:27;;;;;;;6.22;1.80;;;;;27.80;101450.00;;;;10544778;28;20200;-72
2023/06/27 14:50:28;;;;;;;9.50;2.00;;;;;28.00;101442.00;;;;10510937;28;20192;-73
2023/06/27 14:55:33;;;;;;;5.88;2.03;;;;;28.30;101430.00;;;;10526766;28;20701;-73
2023/06/27 15:00:35;;;;;;;3.78;1.90;;;;;27.70;101429.00;;;;10527421;28;20199;-78
2023/06/27 15:05:36;;;;;;;3.53;1.60;;;;;26.60;101425.00;;;;10544162;28;20227;-77
2023/06/27 15:10:44;;;;;;;6.68;2.00;;;;;26.70;101417.00;;;;10544672;28;20184;-88
2023/06/27 15:15:46;;;;;;;5.00;1.73;;;;;27.00;101417.00;;;;10473047;28;20564;-78
2023/06/27 15:20:48;;;;;;;3.03;1.75;;;;;27.10;101416.00;;;;10399952;28;20329;-76
2023/06/27 15:25:50;;;;;;;4.63;1.45;;;;;26.90;101408.00;;;;10398211;28;20602;-78
2023/06/27 15:30:51;;;;;;;4.40;2.22;;;;;26.80;101413.00;;;;10383128;28;20308;-78
2023/06/27 15:35:53;;;;;;;4.97;2.00;;;;;26.30;101410.00;;;;10387476;28;20213;-77
2023/06/27 15:40:54;;;;;;;4.43;1.90;;;;;25.90;101401.00;;;;10397114;28;20231;-78
2023/06/27 15:45:56;;;;;;;4.43;2.10;;;;;25.80;101394.00;;;;10390292;28;20202;-76
2023/06/27 15:50:58;;;;;;;4.85;2.03;;;;;25.20;101388.00;;;;10386882;28;20240;-80
2023/06/27 15:56:00;;;;;;;5.85;2.10;;;;;25.10;101392.00;;;;10368904;28;20839;-77
2023/06/27 16:01:01;;;;;;;6.95;1.92;;;;;24.60;101397.00;;;;10383147;28;20197;-80
2023/06/27 16:06:03;;;;;;;3.95;1.83;;;;;24.10;101389.00;;;;10402075;28;20246;-77
2023/06/27 16:11:04;;;;;;;5.68;1.88;;;;;23.60;101391.00;;;;10380122;28;20217;-78
2023/06/27 16:16:06;;;;;;;3.03;1.98;;;;;23.70;101389.00;;;;10410402;28;20648;-77
2023/06/27 16:21:07;;;;;;;7.85;1.92;;;;;23.60;101398.00;;;;10381363;28;20704;-76
2023/06/27 16:26:08;;;;;;;8.10;2.10;;;;;23.10;101389.00;;;;10378119;28;20674;-77
2023/06/27 16:31:10;;;;;;;4.18;1.63;;;;;22.90;101396.00;;;;10415710;28;20721;-77
2023/06/27 16:36:12;;;;;;;5.68;2.10;;;;;22.70;101401.00;;;;10397972;28;20213;-77
2023/06/27 16:41:13;;;;;;;4.50;1.85;;;;;22.70;101394.00;;;;10381098;28;20205;-77
2023/06/27 16:46:15;;;;;;;5.13;1.60;;;;;22.80;101384.00;;;;10393493;28;21273;-76
2023/06/27 16:51:16;;;;;;;4.63;1.33;;;;;23.00;101395.00;;;;10399742;28;20212;-77
2023/06/27 16:56:18;;;;;;;3.72;1.40;;;;;23.10;101386.00;;;;10394533;28;20843;-77
2023/06/27 17:01:19;;;;;;;4.93;1.75;;;;;23.20;101386.00;;;;10381331;28;20213;-77
2023/06/27 17:06:21;;;;;;;2.90;1.42;;;;;23.20;101390.00;;;;10397676;28;20818;-76
2023/06/27 17:11:22;;;;;;;6.93;1.70;;;;;23.10;101385.00;;;;10380167;28;20218;-77
2023/06/27 17:16:24;;;;;;;5.82;1.70;;;;;22.90;101387.00;;;;10398839;28;20660;-78
2023/06/27 17:21:25;;;;;;;8.70;2.00;;;;;23.00;101401.00;;;;10401480;28;20641;-77
2023/06/27 17:26:27;;;;;;;3.95;1.63;;;;;22.70;101396.00;;;;10401425;28;20205;-77
2023/06/27 17:31:28;;;;;;;8.13;2.05;;;;;22.50;101394.00;;;;10403714;28;20296;-77
2023/06/27 17:36:29;;;;;;;4.50;1.38;;;;;22.30;101393.00;;;;10400463;28;20311;-77
2023/06/27 17:41:31;;;;;;;5.68;1.83;;;;;22.20;101394.00;;;;10401584;28;20252;-76
2023/06/27 17:46:32;;;;;;;3.00;1.45;;;;;22.20;101407.00;;;;10402929;28;20196;-77
2023/06/27 17:51:34;;;;;;;4.10;1.98;;;;;22.10;101397.00;;;;10406167;28;20286;-77
2023/06/27 17:56:35;;;;;;;8.30;1.73;;;;;22.10;101393.00;;;;10391508;28;20281;-77
2023/06/27 18:01:36;;;;;;;3.80;1.50;;;;;22.10;101411.00;;;;10398629;28;20257;-77
2023/06/27 18:06:38;;;;;;;4.68;1.80;;;;;22.20;101420.00;;;;10409566;28;20209;-77
2023/06/27 18:11:41;;;;;;;3.95;1.58;;;;;22.00;101422.00;;;;10407786;28;20205;-76
2023/06/27 18:16:42;;;;;;;5.32;1.60;;;;;21.60;101428.00;;;;10407348;28;20221;-77
2023/06/27 18:21:44;;;;;;;5.15;2.00;;;;;21.20;101414.00;;;;10406746;28;21823;-76
2023/06/27 18:26:45;;;;;;;6.22;2.10;;;;;21.00;101416.00;;;;10416658;28;20213;-76
2023/06/27 18:31:49;;;;;;;4.43;1.75;;;;;20.90;101410.00;;;;10489676;28;20228;-76
2023/06/27 18:36:50;;;;;;;3.45;1.20;;;;;20.90;101421.00;;;;10447996;28;20248;-76
2023/06/27 18:41:51;;;;;;;3.40;1.30;;;;;20.70;101432.00;;;;10503391;28;20272;-76
2023/06/27 18:46:53;;;;;;;4.93;1.40;;;;;20.60;101435.00;;;;10503898;28;20190;-75
2023/06/27 18:51:54;;;;;;;6.78;2.25;;;;;20.50;101431.00;;;;10487923;28;20197;-76
2023/06/27 18:56:56;;;;;;;6.53;1.58;;;;;20.40;101429.00;;;;10502423;28;20213;-77
2023/06/27 19:01:58;;;;;;;2.53;1.23;;;;;20.20;101439.00;;;;10486422;28;20224;-76
2023/06/27 19:07:00;;;;;;;4.60;1.55;;;;;20.10;101452.00;;;;10503639;28;20193;-76
2023/06/27 19:12:01;;;;;;;3.78;1.80;;;;;20.00;101439.00;;;;10485473;28;20216;-74
2023/06/27 19:17:03;;;;;;;5.65;1.45;;;;;19.90;101451.00;;;;10495049;28;20724;-76
2023/06/27 19:22:05;;;;;;;2.80;1.25;;;;;19.80;101444.00;;;;10498563;28;20670;-76
2023/06/27 19:27:09;;;;;;;5.80;1.50;;;;;19.70;101439.00;;;;10493112;28;21342;-75
2023/06/27 19:32:10;;;;;;;3.25;1.40;;;;;19.70;101433.00;;;;10489582;28;20232;-75
2023/06/27 19:37:12;;;;;;;3.40;1.83;;;;;19.70;101430.00;;;;10519747;28;20262;-75
2023/06/27 19:42:13;;;;;;;6.93;2.00;;;;;19.60;101431.00;;;;10518624;28;20251;-76
2023/06/27 19:47:15;;;;;;;5.28;1.65;;;;;19.50;101444.00;;;;10479842;28;20205;-76
2023/06/27 19:52:16;;;;;;;5.40;1.60;;;;;19.50;101452.00;;;;10515251;28;20280;-76
2023/06/27 19:57:18;;;;;;;6.82;1.45;;;;;19.50;101456.00;;;;10497288;28;20300;-76
2023/06/27 20:02:19;;;;;;;4.40;1.67;;;;;19.40;101444.00;;;;10503145;28;21014;-76
2023/06/27 20:07:21;;;;;;;6.10;1.65;;;;;19.40;101453.00;;;;10505116;28;20600;-75
2023/06/27 20:12:22;;;;;;;4.85;1.50;;;;;19.30;101462.00;;;;10528632;28;20197;-76
2023/06/27 20:17:24;;;;;;;5.90;1.40;;;;;19.20;101464.00;;;;10507079;28;20305;-76
2023/06/27 20:22:25;;;;;;;4.85;1.48;;;;;19.20;101458.00;;;;10500723;28;20204;-77
2023/06/27 20:27:27;;;;;;;3.63;1.80;;;;;19.10;101458.00;;;;10503870;28;20291;-76
2023/06/27 20:32:28;;;;;;;5.72;1.60;;;;;19.00;101461.00;;;;10541472;28;20245;-75
2023/06/27 20:37:29;;;;;;;3.78;1.83;;;;;19.00;101454.00;;;;10422532;28;20224;-77
2023/06/27 20:42:32;;;;;;;2.67;1.85;;;;;18.90;101455.00;;;;10462445;28;20196;-77
2023/06/27 20:47:33;;;;;;;6.93;1.95;;;;;18.90;101448.00;;;;10524056;28;20295;-77
2023/06/27 20:52:35;;;;;;;5.53;1.70;;;;;18.80;101447.00;;;;10541544;28;20197;-76
2023/06/27 20:57:37;;;;;;;3.95;1.67;;;;;18.80;101448.00;;;;10540404;28;20295;-77
2023/06/27 21:02:38;;;;;;;6.15;1.85;;;;;18.80;101449.00;;;;10540859;28;20223;-77
2023/06/27 21:07:40;;;;;;;4.22;1.55;;;;;18.80;101462.00;;;;10502386;28;20193;-77
2023/06/27 21:12:42;;;;;;;4.45;1.70;;;;;18.80;101470.00;;;;10525552;28;20691;-77
2023/06/27 21:17:43;;;;;;;3.60;1.88;;;;;18.70;101475.00;;;;10494214;28;20564;-77
2023/06/27 21:22:44;;;;;;;4.90;1.73;;;;;18.70;101469.00;;;;10508287;28;20658;-77
2023/06/27 21:27:46;;;;;;;6.22;1.73;;;;;18.70;101469.00;;;;10491233;28;20630;-77
2023/06/27 21:32:53;;;;;;;4.35;2.05;;;;;18.60;101459.00;;;;10470695;28;20209;-77
2023/06/27 21:37:55;;;;;;;3.45;1.58;;;;;18.60;101472.00;;;;10508387;28;20581;-77
2023/06/27 21:42:56;;;;;;;7.32;2.25;;;;;18.40;101470.00;;;;10539254;28;20550;-78
2023/06/27 21:47:58;;;;;;;9.23;2.72;;;;;17.90;101476.00;;;;10435817;28;20259;-77
2023/06/27 21:52:59;;;;;;;8.50;2.00;;;;;17.40;101476.00;;;;10412301;28;20279;-78
2023/06/27 21:58:00;;;;;;;4.47;1.70;;;;;17.10;101471.00;;;;10482417;28;20582;-78
2023/06/27 22:03:02;;;;;;;5.50;2.17;;;;;17.00;101469.00;;;;10465725;28;20202;-78
2023/06/27 22:08:03;;;;;;;6.05;2.50;;;;;17.00;101462.00;;;;10487036;28;20301;-78
2023/06/27 22:13:05;;;;;;;6.85;2.42;;;;;17.00;101470.00;;;;10514640;28;20258;-78
2023/06/27 22:18:06;;;;;;;8.80;2.30;;;;;17.00;101473.00;;;;10506591;28;20702;-78
2023/06/27 22:23:08;;;;;;;7.07;2.75;;;;;16.80;101475.00;;;;10494192;28;20201;-78
2023/06/27 22:28:09;;;;;;;8.90;2.15;;;;;16.70;101472.00;;;;10494867;28;20204;-78
2023/06/27 22:33:12;;;;;;;9.40;2.63;;;;;16.60;101475.00;;;;10486988;28;20322;-79
2023/06/27 22:38:13;;;;;;;5.95;2.60;;;;;16.50;101476.00;;;;10493717;28;20217;-79
2023/06/27 22:43:15;;;;;;;6.35;2.63;;;;;16.50;101478.00;;;;10464217;28;20194;-79
2023/06/27 22:48:16;;;;;;;4.80;2.40;;;;;16.50;101490.00;;;;10428770;28;20204;-79
2023/06/27 22:53:17;;;;;;;5.75;2.38;;;;;16.40;101476.00;;;;10390519;28;20213;-79
2023/06/27 22:58:19;;;;;;;8.88;2.67;;;;;16.40;101484.00;;;;10401350;28;20229;-79
2023/06/27 23:03:20;;;;;;;7.72;3.10;;;;;16.30;101468.00;;;;10409837;28;21464;-78
2023/06/27 23:08:22;;;;;;;6.32;2.72;;;;;16.30;101459.00;;;;10407487;28;20456;-79
2023/06/27 23:13:24;;;;;;;5.90;2.20;;;;;16.30;101453.00;;;;10390667;28;20299;-79
2023/06/27 23:18:33;;;;;;;5.97;2.47;;;;;16.30;101446.00;;;;10409045;28;20260;-78
2023/06/27 23:23:37;;;;;;;6.60;2.83;;;;;16.30;101440.00;;;;10409126;28;20521;-78
2023/06/27 23:29:00;;;;;;;5.18;2.50;;;;;16.20;101439.00;;;;10406886;28;20560;-78
2023/06/27 23:34:02;;;;;;;7.45;2.53;;;;;16.10;101445.00;;;;10413895;28;20201;-78
2023/06/27 23:39:05;;;;;;;6.22;2.35;;;;;16.20;101446.00;;;;10411607;28;20224;-78
2023/06/27 23:44:06;;;;;;;4.63;2.47;;;;;16.10;101439.00;;;;10410400;28;20316;-78
2023/06/27 23:49:08;;;;;;;6.97;2.50;;;;;16.20;101436.00;;;;10402234;28;20955;-78
2023/06/27 23:54:09;;;;;;;7.13;2.30;;;;;16.20;101427.00;;;;10393485;28;20701;-78
2023/06/27 23:59:10;;;;;;;4.45;2.08;;;;;16.20;101431.00;;;;10407977;28;20225;-78
